Airfield :
LOGIN :

Register | Disclaimer

   EN    FR    IT 

 










Legend :    VFR   Marginal VFR   IFR   Intensive IFR   Very Intensive IFR
Visi :
Ceiling :
>= 8 km
>= 3000ft
5 to 8 km
1000 to 3000 ft
1500m to 5 km
500 to 1000 ft
800 to 1500m
200 to 500 ft
< 800m
< 200 ft
Symbols :   Thunderstorms  Fog  Heavy snow  Heavy precipitations  Wind > 20 kt
SIGMETs :     Misc.  Thunderstorms  Icing  Turbulence  Mountain Waves  Volcanic Ashes






- Airport Elevation : 12 ft
- IATA code : BCN


LEBL - Barcelone

CURRENT METAR :
  • 131430Z 22007KT 9999 FEW035 14/09 Q1007 NOSIG

EXPIRED METARs :
  • 131400Z 22006KT 9999 FEW030 14/09 Q1007 NOSIG
  • 131330Z 29003KT 9999 FEW030 14/09 Q1007 NOSIG
  • 131230Z 32009KT 9999 FEW030 12/08 Q1007 NOSIG
  • 131200Z 32009KT 9999 FEW030 10/07 Q1007 NOSIG

TAF TAF LEBL
Valid from the 13 at 12:00 until the 14 at 12:00 UTC


131100Z 1312/1412 34010KT 9999 SCT030 TX14/1314Z TN07/1406Z
TEMPO 1312/1314 7000 RA BKN020
BECMG 1314/1316 22008KT
BECMG 1319/1321 31006KT



MET'MAP, your aeronautical weather chart ! - Copyright ORBIFLY December 2007 - Disclaimer

ORBIFLY MET'MAP TEAM :

Programming & Development : Alexandra Zaïnal
Concept & Development : Baudouin d'Aumeries
Co-Development & Prog : Marc-Olivier Méhu
Technical & hardware support : Manuel Goepfert

Contact : metmap@orbifly.com




SOURCES & CREDITS :

   NOAA